Airfield :







YOU CAN JOIN US ON...

 
LOGIN :

Register | Disclaimer

   EN    FR    IT 

 









Legend :    VFR   Marginal VFR   IFR   Intensive IFR   Very Intensive IFR
Visi :
Ceiling :
>= 8 km
>= 3000ft
5 to 8 km
1000 to 3000 ft
1500m to 5 km
500 to 1000 ft
800 to 1500m
200 to 500 ft
< 800m
< 200 ft
Symbols :   Thunderstorms  Fog  Heavy snow  Heavy precipitations  Wind > 20 kt






- Airport Elevation : 20 ft
- IATA code : BOS


KBOS - General Edward Lawrence Logan International

CURRENT METAR :
  • 311454Z 32016G24KT 10SM FEW030 17/01 A3000 RMK AO2 SLP159 T01670006 51013

EXPIRED METARs :
  • 311354Z 30013KT 10SM FEW025 FEW040 FEW220 16/02 A3000 RMK AO2 SLP158 T01610022
  • 311254Z 33019G25KT 10SM FEW040 FEW220 16/03 A2999 RMK AO2 SLP154 T01560033

TAF KBOS
Valid from the 31 at 14:00 until the 01 at 18:00 UTC


311428Z 3114/0118 32012G20KT P6SM FEW040
FM010000 33009KT P6SM FEW250
KZBW FIR / North America



MET'MAP, your aeronautical weather chart ! - Copyright ORBIFLY December 2007 - Disclaimer

ORBIFLY MET'MAP TEAM :

Programming & Development : Alexandra Zaïnal
Concept & original design : Baudouin d'Aumeries
Assistance for programming : Marc-Olivier Méhu
Technical & hardware support : Manuel Goepfert

Contact : metmap@orbifly.com




SOURCES & CREDITS :

   NOAA